createdAt,value
2022-10-17T00:01:25.519Z,100466.85
2022-10-17T00:04:28.625Z,100472.94
2022-10-17T00:07:31.574Z,100475.90
2022-10-17T00:10:35.207Z,100487.54
2022-10-17T00:13:38.077Z,100514.88
2022-10-17T00:16:41.254Z,100524.45
2022-10-17T00:19:44.120Z,100533.38
2022-10-17T00:22:47.095Z,100534.15
2022-10-17T00:26:02.349Z,100535.16
2022-10-17T00:29:05.501Z,100535.92
2022-10-17T00:32:08.805Z,100532.70
2022-10-17T00:35:12.182Z,100528.88
2022-10-17T00:38:15.154Z,100528.11
2022-10-17T00:41:20.463Z,100522.92
2022-10-17T00:44:32.258Z,100521.23
2022-10-17T00:47:37.134Z,100517.30
2022-10-17T00:50:44.032Z,100518.05
2022-10-17T00:53:47.310Z,100519.83
2022-10-17T00:56:51.364Z,100529.38
2022-10-17T00:59:58.084Z,100525.90
2022-10-17T01:03:00.934Z,100532.91
2022-10-17T01:06:04.017Z,100540.70
2022-10-17T01:09:06.981Z,100545.71
2022-10-17T01:12:18.960Z,100537.52
2022-10-17T01:15:37.180Z,100541.03
2022-10-17T01:18:58.471Z,100545.96
2022-10-17T01:22:10.854Z,100545.40
2022-10-17T01:25:32.659Z,100541.60
2022-10-17T01:29:00.600Z,100531.82
2022-10-17T01:32:29.726Z,100533.44
2022-10-17T01:35:41.443Z,100529.89
2022-10-17T01:38:49.431Z,100530.69
2022-10-17T01:41:59.669Z,100532.41
2022-10-17T01:45:25.870Z,100534.27
2022-10-17T01:48:35.749Z,100530.64
2022-10-17T01:51:49.825Z,100528.48
2022-10-17T01:54:58.467Z,100529.16
2022-10-17T01:58:13.268Z,100534.38
2022-10-17T02:01:17.607Z,100535.77
2022-10-17T02:04:21.362Z,100534.34
2022-10-17T02:07:24.590Z,100527.66
2022-10-17T02:10:39.970Z,100527.21
2022-10-17T02:14:21.650Z,100524.85
2022-10-17T02:17:35.037Z,100519.48
2022-10-17T02:20:49.909Z,100517.12
2022-10-17T02:23:56.150Z,100519.87
2022-10-17T02:27:12.218Z,100523.79
2022-10-17T02:30:20.514Z,100521.73
2022-10-17T02:33:29.528Z,100517.94
2022-10-17T02:36:44.497Z,100523.55
2022-10-17T02:39:48.680Z,100526.51
2022-10-17T02:42:54.470Z,100528.29
2022-10-17T02:45:58.399Z,100534.59
2022-10-17T02:49:25.884Z,100540.48
2022-10-17T02:52:35.615Z,100546.68
2022-10-17T02:56:13.065Z,100543.46
2022-10-17T02:59:21.481Z,100542.14
2022-10-17T03:02:24.900Z,100536.23
2022-10-17T03:05:30.918Z,100531.66
2022-10-17T03:08:33.847Z,100523.13
2022-10-17T03:11:36.781Z,100520.61
2022-10-17T03:14:39.647Z,100524.94
2022-10-17T03:17:42.710Z,100525.67
2022-10-17T03:20:45.592Z,100532.58
2022-10-17T03:23:48.472Z,100534.69
2022-10-17T03:26:51.565Z,100536.59
2022-10-17T03:29:54.509Z,100541.44
2022-10-17T03:33:00.969Z,100540.83
2022-10-17T03:36:12.564Z,100544.37
2022-10-17T03:39:15.406Z,100547.31
2022-10-17T03:42:18.472Z,100546.29
2022-10-17T03:45:22.801Z,100551.09
2022-10-17T03:48:26.463Z,100545.73
2022-10-17T03:51:29.438Z,100544.45
2022-10-17T03:54:32.307Z,100537.54
2022-10-17T03:57:37.159Z,100537.25
2022-10-17T04:00:40.204Z,100534.77
2022-10-17T04:03:43.478Z,100538.98
2022-10-17T04:06:46.446Z,100537.98
2022-10-17T04:09:49.637Z,100542.11
2022-10-17T04:12:52.636Z,100546.70
2022-10-17T04:16:03.958Z,100546.73
2022-10-17T04:19:06.931Z,100551.36
2022-10-17T04:22:09.905Z,100549.08
2022-10-17T04:25:12.775Z,100552.83
2022-10-17T04:28:15.958Z,100552.80
2022-10-17T04:31:19.745Z,100553.17
2022-10-17T04:34:22.917Z,100551.96
2022-10-17T04:37:25.995Z,100550.13
2022-10-17T04:40:29.964Z,100546.99
2022-10-17T04:43:36.076Z,100545.54
2022-10-17T04:46:39.005Z,100547.39
2022-10-17T04:49:42.489Z,100548.98
2022-10-17T04:52:45.254Z,100545.70
2022-10-17T04:55:50.582Z,100545.67
2022-10-17T04:58:53.449Z,100540.38
2022-10-17T05:02:00.012Z,100542.64
2022-10-17T05:05:02.880Z,100541.78
2022-10-17T05:08:07.280Z,100541.26
2022-10-17T05:11:36.755Z,100538.77
2022-10-17T05:14:39.627Z,100534.48
2022-10-17T05:17:42.699Z,100540.43
2022-10-17T05:20:47.820Z,100539.52
2022-10-17T05:23:51.407Z,100545.72
2022-10-17T05:27:04.611Z,100549.61
2022-10-17T05:30:08.916Z,100548.05
2022-10-17T05:33:11.797Z,100550.73
2022-10-17T05:36:15.171Z,100551.96
2022-10-17T05:39:19.906Z,100553.72
2022-10-17T05:42:23.325Z,100555.45
2022-10-17T05:45:26.539Z,100557.54
2022-10-17T05:48:29.305Z,100560.95
2022-10-17T05:51:34.070Z,100559.17
2022-10-17T05:54:36.990Z,100559.20
2022-10-17T05:57:40.075Z,100560.48
2022-10-17T06:00:43.276Z,100558.21
2022-10-17T06:03:46.421Z,100560.66
2022-10-17T06:06:49.297Z,100565.09
2022-10-17T06:09:52.165Z,100564.80
2022-10-17T06:12:55.027Z,100569.23
2022-10-17T06:15:58.006Z,100568.68
2022-10-17T06:19:00.874Z,100574.52
2022-10-17T06:22:03.740Z,100573.57
2022-10-17T06:25:06.863Z,100575.73
2022-10-17T06:28:11.426Z,100573.02
2022-10-17T06:31:16.785Z,100577.54
2022-10-17T06:34:19.826Z,100578.79
2022-10-17T06:37:25.566Z,100582.17
2022-10-17T06:40:28.531Z,100589.61
2022-10-17T06:43:31.413Z,100592.24
2022-10-17T06:46:34.183Z,100596.69
2022-10-17T06:49:37.142Z,100601.52
2022-10-17T06:52:40.114Z,100606.79
2022-10-17T06:55:43.186Z,100613.75
2022-10-17T06:58:47.292Z,100620.38
2022-10-17T07:01:50.360Z,100624.35
2022-10-17T07:04:53.434Z,100628.48
2022-10-17T07:07:56.306Z,100623.98
2022-10-17T07:11:09.717Z,100626.11
2022-10-17T07:14:12.687Z,100628.86
2022-10-17T07:17:15.661Z,100629.29
2022-10-17T07:20:18.939Z,100631.84
2022-10-17T07:23:22.934Z,100630.16
2022-10-17T07:26:26.009Z,100626.02
2022-10-17T07:29:29.634Z,100629.54
2022-10-17T07:32:32.979Z,100627.16
2022-10-17T07:35:40.982Z,100627.23
2022-10-17T07:38:44.344Z,100631.23
2022-10-17T07:41:50.905Z,100631.27
2022-10-17T07:44:53.982Z,100632.30
2022-10-17T07:47:57.766Z,100632.80
2022-10-17T07:51:08.827Z,100634.11
2022-10-17T07:54:11.846Z,100639.10
2022-10-17T07:57:14.764Z,100639.30
2022-10-17T08:00:17.635Z,100637.38
2022-10-17T08:03:20.504Z,100641.03
2022-10-17T08:06:23.379Z,100640.84
2022-10-17T08:09:26.350Z,100642.05
2022-10-17T08:12:32.806Z,100646.54
2022-10-17T08:15:38.958Z,100645.98
2022-10-17T08:18:46.745Z,100648.56
2022-10-17T08:21:50.413Z,100650.80
2022-10-17T08:24:53.697Z,100651.25
2022-10-17T08:27:58.008Z,100652.48
2022-10-17T08:31:10.058Z,100653.54
2022-10-17T08:34:13.046Z,100652.38
2022-10-17T08:37:16.326Z,100657.34
2022-10-17T08:40:27.797Z,100658.27
2022-10-17T08:43:52.868Z,100655.37
2022-10-17T08:46:59.628Z,100655.29
2022-10-17T08:50:07.208Z,100652.80
2022-10-17T08:53:20.206Z,100652.36
2022-10-17T08:56:44.530Z,100647.43
2022-10-17T08:59:53.585Z,100647.87
2022-10-17T09:03:48.227Z,100645.19
2022-10-17T09:07:01.200Z,100640.67
2022-10-17T09:10:19.364Z,100638.23
2022-10-17T09:13:44.931Z,100641.22
2022-10-17T09:16:57.039Z,100638.52
2022-10-17T09:20:11.251Z,100640.80
2022-10-17T09:23:20.145Z,100639.70
2022-10-17T09:26:23.740Z,100637.83
2022-10-17T09:29:32.388Z,100636.13
2022-10-17T09:32:38.387Z,100636.91
2022-10-17T09:35:42.684Z,100633.15
2022-10-17T09:38:51.360Z,100635.60
2022-10-17T09:41:58.024Z,100635.63
2022-10-17T09:45:26.194Z,100640.44
2022-10-17T09:48:52.583Z,100640.30
2022-10-17T09:51:57.936Z,100644.08
2022-10-17T09:55:16.055Z,100645.41
2022-10-17T09:58:21.004Z,100645.83
2022-10-17T10:01:31.238Z,100648.52
2022-10-17T10:04:41.555Z,100643.98
2022-10-17T10:08:06.698Z,100644.51
2022-10-17T10:11:13.885Z,100642.11
2022-10-17T10:14:35.648Z,100641.47
2022-10-17T10:17:44.146Z,100645.57
2022-10-17T10:20:47.183Z,100647.32
2022-10-17T10:24:10.119Z,100649.56
2022-10-17T10:27:16.975Z,100649.99
2022-10-17T10:30:29.571Z,100646.81
2022-10-17T10:33:41.356Z,100649.30
2022-10-17T10:37:04.674Z,100650.91
2022-10-17T10:40:30.979Z,100647.25
2022-10-17T10:43:45.659Z,100649.42
2022-10-17T10:46:48.896Z,100652.40
2022-10-17T10:50:06.418Z,100643.81
2022-10-17T10:53:44.781Z,100644.02
2022-10-17T10:56:53.473Z,100647.96
2022-10-17T11:00:13.751Z,100647.70
2022-10-17T11:03:24.704Z,100649.17
2022-10-17T11:06:37.704Z,100637.66
2022-10-17T11:10:12.401Z,100640.41
2022-10-17T11:13:24.511Z,100641.76
2022-10-17T11:16:42.259Z,100640.01
2022-10-17T11:20:15.972Z,100638.50
2022-10-17T11:23:35.308Z,100636.96
2022-10-17T11:27:00.999Z,100636.19
2022-10-17T11:30:12.880Z,100632.05
2022-10-17T11:33:27.918Z,100634.17
2022-10-17T11:36:36.216Z,100627.27
2022-10-17T11:39:52.287Z,100623.52
2022-10-17T11:43:07.130Z,100622.38
2022-10-17T11:46:26.167Z,100615.29
2022-10-17T11:49:39.913Z,100615.65
2022-10-17T11:53:09.088Z,100610.84
2022-10-17T11:56:15.269Z,100611.35
2022-10-17T11:59:34.852Z,100610.14
2022-10-17T12:03:12.437Z,100608.10
2022-10-17T12:06:40.290Z,100596.73
2022-10-17T12:10:16.993Z,100593.29
2022-10-17T12:13:31.183Z,100603.48
2022-10-17T12:16:34.430Z,100602.12
2022-10-17T12:19:38.703Z,100598.23
2022-10-17T12:22:48.230Z,100602.42
2022-10-17T12:26:04.640Z,100596.63
2022-10-17T12:29:29.287Z,100591.20
2022-10-17T12:32:46.939Z,100595.86
2022-10-17T12:36:33.645Z,100585.45
2022-10-17T12:39:36.513Z,100577.83
2022-10-17T12:42:48.842Z,100575.23
2022-10-17T12:45:53.328Z,100578.59
2022-10-17T12:49:01.917Z,100573.42
2022-10-17T12:52:06.923Z,100568.79
2022-10-17T12:55:19.220Z,100567.95
2022-10-17T12:58:23.228Z,100573.30
2022-10-17T13:01:34.357Z,100568.19
2022-10-17T13:04:37.539Z,100562.27
2022-10-17T13:07:42.763Z,100566.40
2022-10-17T13:10:51.589Z,100565.11
2022-10-17T13:13:59.305Z,100563.39
2022-10-17T13:17:06.499Z,100563.77
2022-10-17T13:20:27.544Z,100561.13
2022-10-17T13:23:37.975Z,100561.91
2022-10-17T13:26:45.827Z,100567.54
2022-10-17T13:29:48.805Z,100561.81
2022-10-17T13:32:52.184Z,100564.67
2022-10-17T13:36:00.370Z,100559.85
2022-10-17T13:39:12.337Z,100556.48
2022-10-17T13:42:26.222Z,100556.04
2022-10-17T13:45:34.873Z,100555.94
2022-10-17T13:48:38.458Z,100552.55
2022-10-17T13:51:51.122Z,100547.95
2022-10-17T13:54:54.865Z,100544.18
2022-10-17T13:58:10.195Z,100544.43
2022-10-17T14:01:14.566Z,100549.58
2022-10-17T14:04:20.391Z,100545.82
2022-10-17T14:07:34.220Z,100542.61
2022-10-17T14:10:46.504Z,100542.88
2022-10-17T14:13:53.123Z,100543.89
2022-10-17T14:16:56.533Z,100545.13
2022-10-17T14:23:34.252Z,100538.42
2022-10-17T14:27:06.896Z,100539.77
2022-10-17T14:34:02.615Z,100539.77
2022-10-17T14:37:26.849Z,100539.13
2022-10-17T14:40:32.770Z,100535.52
2022-10-17T14:43:35.744Z,100535.45
2022-10-17T14:46:49.730Z,100535.29
2022-10-17T14:50:13.008Z,100537.05
2022-10-17T14:53:15.979Z,100536.86
2022-10-17T14:56:25.804Z,100537.05
2022-10-17T14:59:52.950Z,100540.16
2022-10-17T15:02:55.362Z,100539.48
2022-10-17T15:05:59.629Z,100541.57
2022-10-17T15:09:02.663Z,100542.05
2022-10-17T15:12:13.210Z,100541.37
2022-10-17T15:15:16.384Z,100543.23
2022-10-17T15:18:19.571Z,100545.41
2022-10-17T15:21:38.433Z,100543.42
2022-10-17T15:24:46.120Z,100549.46
2022-10-17T15:27:50.301Z,100544.85
2022-10-17T15:30:53.250Z,100544.69
2022-10-17T15:33:56.219Z,100548.34
2022-10-17T15:36:59.396Z,100548.26
2022-10-17T15:40:02.268Z,100545.23
2022-10-17T15:43:05.237Z,100544.83
2022-10-17T15:46:21.665Z,100543.50
2022-10-17T15:49:24.587Z,100545.96
2022-10-17T15:52:28.586Z,100549.80
2022-10-17T15:55:32.785Z,100555.61
2022-10-17T15:58:40.510Z,100555.73
2022-10-17T16:01:44.052Z,100558.09
2022-10-17T16:04:48.252Z,100557.09
2022-10-17T16:07:52.609Z,100554.57
2022-10-17T16:10:56.971Z,100556.33
2022-10-17T16:14:02.593Z,100557.56
2022-10-17T16:17:05.974Z,100565.09
2022-10-17T16:20:10.289Z,100563.16
2022-10-17T16:23:13.865Z,100564.25
2022-10-17T16:26:17.249Z,100569.90
2022-10-17T16:29:22.008Z,100563.77
2022-10-17T16:32:26.157Z,100556.41
2022-10-17T16:35:34.732Z,100565.84
2022-10-17T16:38:40.591Z,100563.56
2022-10-17T16:41:43.463Z,100560.61
2022-10-17T16:45:21.389Z,100560.05
2022-10-17T16:48:29.595Z,100567.83
2022-10-17T16:51:36.995Z,100569.27
2022-10-17T16:54:39.868Z,100577.89
2022-10-17T16:57:49.186Z,100575.23
2022-10-17T17:00:54.169Z,100577.79
2022-10-17T17:03:57.586Z,100571.65
2022-10-17T17:07:01.248Z,100570.90
2022-10-17T17:10:04.758Z,100566.80
2022-10-17T17:13:07.836Z,100563.66
2022-10-17T17:16:22.878Z,100564.92
2022-10-17T17:19:27.383Z,100562.61
2022-10-17T17:22:33.195Z,100558.38
2022-10-17T17:25:39.678Z,100559.19
2022-10-17T17:28:43.459Z,100559.40
2022-10-17T17:31:47.362Z,100555.48
2022-10-17T17:34:50.230Z,100556.98
2022-10-17T17:37:52.996Z,100555.77
2022-10-17T17:40:58.321Z,100555.98
2022-10-17T17:44:02.421Z,100557.77
2022-10-17T17:47:05.427Z,100556.47
2022-10-17T17:50:08.775Z,100556.70
2022-10-17T17:53:13.807Z,100562.56
2022-10-17T17:56:28.230Z,100555.36
2022-10-17T17:59:31.506Z,100554.42
2022-10-17T18:02:37.667Z,100554.69
2022-10-17T18:05:42.483Z,100546.92
2022-10-17T18:08:47.813Z,100552.27
2022-10-17T18:11:50.661Z,100548.35
2022-10-17T18:14:53.640Z,100548.55
2022-10-17T18:17:56.605Z,100549.48
2022-10-17T18:21:01.431Z,100545.11
2022-10-17T18:24:07.270Z,100543.52
2022-10-17T18:27:10.141Z,100556.60
2022-10-17T18:30:15.056Z,100549.41
2022-10-17T18:33:18.018Z,100563.59
2022-10-17T18:36:21.863Z,100569.86
2022-10-17T18:39:24.833Z,100564.83
2022-10-17T18:42:28.184Z,100562.79
2022-10-17T18:45:31.849Z,100562.20
2022-10-17T18:48:45.173Z,100567.42
2022-10-17T18:51:48.035Z,100566.46
2022-10-17T18:54:50.820Z,100580.98
2022-10-17T18:57:54.030Z,100581.86
2022-10-17T19:01:03.607Z,100583.02
2022-10-17T19:04:06.779Z,100585.34
2022-10-17T19:07:09.641Z,100579.50
2022-10-17T19:10:12.717Z,100574.48
2022-10-17T19:13:20.716Z,100558.38
2022-10-17T19:16:34.571Z,100565.96
2022-10-17T19:19:37.610Z,100575.58
2022-10-17T19:22:40.503Z,100577.39
2022-10-17T19:25:43.956Z,100581.54
2022-10-17T19:28:47.910Z,100578.91
2022-10-17T19:31:51.226Z,100576.45
2022-10-17T19:34:54.403Z,100574.12
2022-10-17T19:37:57.744Z,100571.55
2022-10-17T19:41:00.971Z,100576.92
2022-10-17T19:44:03.809Z,100579.44
2022-10-17T19:47:06.674Z,100575.80
2022-10-17T19:50:09.692Z,100576.81
2022-10-17T19:53:12.645Z,100577.72
2022-10-17T19:56:18.822Z,100580.96
2022-10-17T19:59:45.587Z,100585.71
2022-10-17T20:02:49.712Z,100583.37
2022-10-17T20:05:52.747Z,100585.55
2022-10-17T20:08:56.469Z,100581.17
2022-10-17T20:12:00.263Z,100585.17
2022-10-17T20:15:03.665Z,100580.77
2022-10-17T20:18:07.565Z,100585.60
2022-10-17T20:21:12.964Z,100580.10
2022-10-17T20:24:19.775Z,100583.38
2022-10-17T20:27:27.724Z,100580.09
2022-10-17T20:30:30.994Z,100580.50
2022-10-17T20:33:39.517Z,100570.55
2022-10-17T20:36:44.292Z,100578.89
2022-10-17T20:39:52.640Z,100588.58
2022-10-17T20:43:21.163Z,100594.35
2022-10-17T20:46:36.993Z,100599.16
2022-10-17T20:49:41.010Z,100598.29
2022-10-17T20:52:43.893Z,100600.64
2022-10-17T20:55:47.774Z,100597.20
2022-10-17T20:58:52.803Z,100600.27
2022-10-17T21:01:56.585Z,100601.75
2022-10-17T21:05:00.278Z,100590.54
2022-10-17T21:08:05.081Z,100596.05
2022-10-17T21:11:11.243Z,100598.32
2022-10-17T21:14:16.936Z,100600.20
2022-10-17T21:17:20.061Z,100606.90
2022-10-17T21:20:22.913Z,100603.69
2022-10-17T21:23:26.603Z,100607.30
2022-10-17T21:26:32.742Z,100601.19
2022-10-17T21:29:35.727Z,100605.02
2022-10-17T21:32:51.101Z,100603.58
2022-10-17T21:35:55.374Z,100600.92
2022-10-17T21:38:58.487Z,100610.40
2022-10-17T21:42:01.531Z,100608.13
2022-10-17T21:45:10.689Z,100605.17
2022-10-17T21:48:19.124Z,100607.92
2022-10-17T21:51:24.184Z,100603.49
2022-10-17T21:54:29.483Z,100599.86
2022-10-17T21:57:33.690Z,100597.92
2022-10-17T22:00:37.921Z,100594.17
2022-10-17T22:03:47.330Z,100604.17
2022-10-17T22:06:53.558Z,100612.77
2022-10-17T22:09:56.541Z,100606.91
2022-10-17T22:12:59.493Z,100602.83
2022-10-17T22:16:06.355Z,100599.85
2022-10-17T22:19:12.006Z,100604.61
2022-10-17T22:22:14.827Z,100606.14
2022-10-17T22:25:18.060Z,100604.23
2022-10-17T22:28:22.838Z,100602.63
2022-10-17T22:31:26.973Z,100599.34
2022-10-17T22:34:30.121Z,100605.67
2022-10-17T22:37:35.957Z,100598.27
2022-10-17T22:40:39.992Z,100599.75
2022-10-17T22:43:43.128Z,100603.81
2022-10-17T22:46:45.894Z,100607.25
2022-10-17T22:49:54.087Z,100599.90
2022-10-17T22:52:57.469Z,100594.06
2022-10-17T22:56:36.256Z,100603.41
2022-10-17T22:59:40.887Z,100601.50
2022-10-17T23:02:45.075Z,100601.08
2022-10-17T23:05:50.129Z,100607.44
2022-10-17T23:08:53.060Z,100605.65
2022-10-17T23:11:56.043Z,100608.55
2022-10-17T23:15:00.944Z,100608.02
2022-10-17T23:18:05.452Z,100600.06
2022-10-17T23:21:08.937Z,100599.27
2022-10-17T23:24:15.388Z,100599.67
2022-10-17T23:27:18.503Z,100602.25
2022-10-17T23:30:23.081Z,100600.64
2022-10-17T23:33:26.151Z,100600.14
2022-10-17T23:36:29.227Z,100599.55
2022-10-17T23:39:33.525Z,100602.69
2022-10-17T23:42:36.810Z,100600.73
2022-10-17T23:48:49.096Z,100604.11
2022-10-17T23:51:53.706Z,100609.88
2022-10-17T23:54:57.083Z,100609.50
2022-10-17T23:58:00.177Z,100604.95
